PWSweather.com
Personal Weather Stations
Station Observations
CALONGE
CalongeES 17251

CalongeES 17251

Lat: 41.85972222, Lon: 3.077777778

Elevation: 16

Station Type: Oregon WMR928N

www.calonge-meteoweb.com

High Low Average
Temperature 61.9°F16.6°C 43.2°F6.2°C 52.4°F11.3°C
Dew Point 45.6°F7.6°C 27.3°F-2.6°C 33.8°F1.0°C
Winds 11.4 mph 18.3 kmh Calm Calm 4.0 mph SW6.4 kmh SW
Wind Gusts 19.6 mph31.5 kmh -- 10.0 mph16.1 kmh
Humidity 96% 27% 53%
Pressure 30.07 in1018.3 mb 29.92 in1013.2 mb -
Precipitation 0.00 in0.0 mm - -
Hour Temp Dew Point Humidity Winds Wind Gusts Pressure Precip Precip Rate Daily Precip Total
12:00 AM 43.7°F6.5°C 41.8°F5.4°C 93% Calm Calm -- 29.92 in1013.2 mb 0.00 in0.0 mm 0.00 in0.0 mm 0.00 in0.0 mm
12:15 AM 43.5°F6.4°C 41.6°F5.3°C 93% Calm Calm -- 29.92 in1013.2 mb 0.00 in0.0 mm 0.00 in0.0 mm 0.00 in0.0 mm
12:30 AM 43.9°F6.6°C 42.5°F5.8°C 95% Calm Calm -- 29.95 in1014.2 mb 0.00 in0.0 mm 0.00 in0.0 mm 0.00 in0.0 mm
12:45 AM 44.4°F6.9°C 43.4°F6.3°C 96% 4.1 mph WNW6.6 kmh WNW 7.6 mph12.2 kmh 29.95 in1014.2 mb 0.00 in0.0 mm 0.00 in0.0 mm 0.00 in0.0 mm
01:00 AM 44.1°F6.7°C 43.0°F6.1°C 96% Calm Calm -- 29.92 in1013.2 mb 0.00 in0.0 mm 0.00 in0.0 mm 0.00 in0.0 mm
01:15 AM 43.5°F6.4°C 42.2°F5.7°C 95% 4.7 mph W7.6 kmh W 7.0 mph11.3 kmh 29.92 in1013.2 mb 0.00 in0.0 mm 0.00 in0.0 mm 0.00 in0.0 mm
01:30 AM 43.2°F6.2°C 41.8°F5.4°C 95% Calm Calm 7.0 mph11.3 kmh 29.92 in1013.2 mb 0.00 in0.0 mm 0.00 in0.0 mm 0.00 in0.0 mm
01:45 AM 43.9°F6.6°C 42.5°F5.8°C 95% Calm Calm 5.3 mph8.5 kmh 29.92 in1013.2 mb 0.00 in0.0 mm 0.00 in0.0 mm 0.00 in0.0 mm
02:00 AM 45.3°F7.4°C 44.0°F6.7°C 95% 4.1 mph NE6.6 kmh NE 7.0 mph11.3 kmh 29.92 in1013.2 mb 0.00 in0.0 mm 0.00 in0.0 mm 0.00 in0.0 mm
02:15 AM 46.9°F8.3°C 45.6°F7.6°C 95% Calm Calm 5.3 mph8.5 kmh 29.92 in1013.2 mb 0.00 in0.0 mm 0.00 in0.0 mm 0.00 in0.0 mm
02:30 AM 47.7°F8.7°C 45.5°F7.5°C 92% Calm Calm -- 29.92 in1013.2 mb 0.00 in0.0 mm 0.00 in0.0 mm 0.00 in0.0 mm
02:45 AM 48.2°F9.0°C 44.2°F6.8°C 86% Calm Calm -- 29.92 in1013.2 mb 0.00 in0.0 mm 0.00 in0.0 mm 0.00 in0.0 mm
03:00 AM 48.2°F9.0°C 41.7°F5.4°C 78% Calm Calm 7.0 mph11.3 kmh 29.92 in1013.2 mb 0.00 in0.0 mm 0.00 in0.0 mm 0.00 in0.0 mm
03:15 AM 48.2°F9.0°C 41.0°F5.0°C 76% Calm Calm -- 29.92 in1013.2 mb 0.00 in0.0 mm 0.00 in0.0 mm 0.00 in0.0 mm
03:30 AM 48.6°F9.2°C 40.6°F4.8°C 74% Calm Calm 5.3 mph8.5 kmh 29.92 in1013.2 mb 0.00 in0.0 mm 0.00 in0.0 mm 0.00 in0.0 mm
03:45 AM 48.2°F9.0°C 39.6°F4.2°C 72% Calm Calm -- 29.92 in1013.2 mb 0.00 in0.0 mm 0.00 in0.0 mm 0.00 in0.0 mm
04:00 AM 48.6°F9.2°C 39.2°F4.0°C 70% 2.9 mph NW4.7 kmh NW 7.0 mph11.3 kmh 29.92 in1013.2 mb 0.00 in0.0 mm 0.00 in0.0 mm 0.00 in0.0 mm
04:15 AM 48.9°F9.4°C 37.3°F2.9°C 64% Calm Calm 8.2 mph13.2 kmh 29.92 in1013.2 mb 0.00 in0.0 mm 0.00 in0.0 mm 0.00 in0.0 mm
04:30 AM 48.7°F9.3°C 37.1°F2.8°C 64% Calm Calm 6.4 mph10.3 kmh 29.92 in1013.2 mb 0.00 in0.0 mm 0.00 in0.0 mm 0.00 in0.0 mm
04:45 AM 49.1°F9.5°C 36.6°F2.6°C 62% Calm Calm 7.6 mph12.2 kmh 29.92 in1013.2 mb 0.00 in0.0 mm 0.00 in0.0 mm 0.00 in0.0 mm
05:00 AM 49.5°F9.7°C 34.0°F1.1°C 55% Calm Calm 8.2 mph13.2 kmh 29.92 in1013.2 mb 0.00 in0.0 mm 0.00 in0.0 mm 0.00 in0.0 mm
05:15 AM 50.5°F10.3°C 33.6°F0.9°C 52% 4.1 mph N6.6 kmh N 13.2 mph21.2 kmh 29.92 in1013.2 mb 0.00 in0.0 mm 0.00 in0.0 mm 0.00 in0.0 mm
05:30 AM 50.9°F10.5°C 32.4°F0.2°C 49% 5.9 mph NNW9.5 kmh NNW 10.8 mph17.4 kmh 29.92 in1013.2 mb 0.00 in0.0 mm 0.00 in0.0 mm 0.00 in0.0 mm
05:45 AM 51.4°F10.8°C 32.4°F0.2°C 48% 4.7 mph NNW7.6 kmh NNW 12.0 mph19.3 kmh 29.92 in1013.2 mb 0.00 in0.0 mm 0.00 in0.0 mm 0.00 in0.0 mm
06:00 AM 51.3°F10.7°C 32.7°F0.4°C 49% 5.3 mph N8.5 kmh N 9.4 mph15.1 kmh 29.92 in1013.2 mb 0.00 in0.0 mm 0.00 in0.0 mm 0.00 in0.0 mm
06:15 AM 51.6°F10.9°C 32.6°F0.3°C 48% 4.7 mph NNW7.6 kmh NNW 16.1 mph25.9 kmh 29.92 in1013.2 mb 0.00 in0.0 mm 0.00 in0.0 mm 0.00 in0.0 mm
06:30 AM 52.0°F11.1°C 32.4°F0.2°C 47% 6.4 mph N10.3 kmh N 13.2 mph21.2 kmh 29.95 in1014.2 mb 0.00 in0.0 mm 0.00 in0.0 mm 0.00 in0.0 mm
06:45 AM 52.0°F11.1°C 32.4°F0.2°C 47% 7.6 mph NNW12.2 kmh NNW 16.7 mph26.9 kmh 29.95 in1014.2 mb 0.00 in0.0 mm 0.00 in0.0 mm 0.00 in0.0 mm
07:00 AM 52.0°F11.1°C 32.4°F0.2°C 47% 7.6 mph NNW12.2 kmh NNW 16.7 mph26.9 kmh 29.95 in1014.2 mb 0.00 in0.0 mm 0.00 in0.0 mm 0.00 in0.0 mm
07:15 AM 52.2°F11.2°C 32.0°F0.0°C 46% 7.0 mph NNW11.3 kmh NNW 14.4 mph23.2 kmh 29.95 in1014.2 mb 0.00 in0.0 mm 0.00 in0.0 mm 0.00 in0.0 mm
07:30 AM 52.2°F11.2°C 32.0°F0.0°C 46% 7.6 mph NW12.2 kmh NW 17.9 mph28.8 kmh 29.95 in1014.2 mb 0.00 in0.0 mm 0.00 in0.0 mm 0.00 in0.0 mm
07:45 AM 52.2°F11.2°C 32.0°F0.0°C 46% 8.2 mph NNW13.2 kmh NNW 13.8 mph22.2 kmh 29.95 in1014.2 mb 0.00 in0.0 mm 0.00 in0.0 mm 0.00 in0.0 mm
08:00 AM 52.0°F11.1°C 31.8°F-0.1°C 46% 8.2 mph N13.2 kmh N 11.4 mph18.3 kmh 29.95 in1014.2 mb 0.00 in0.0 mm 0.00 in0.0 mm 0.00 in0.0 mm
08:15 AM 51.6°F10.9°C 32.0°F0.0°C 47% 3.5 mph N5.6 kmh N 8.2 mph13.2 kmh 29.98 in1015.2 mb 0.00 in0.0 mm 0.00 in0.0 mm 0.00 in0.0 mm
08:30 AM 51.6°F10.9°C 32.0°F0.0°C 47% 7.0 mph NNW11.3 kmh NNW 10.5 mph16.9 kmh 29.98 in1015.2 mb 0.00 in0.0 mm 0.00 in0.0 mm 0.00 in0.0 mm
08:45 AM 51.8°F11.0°C 31.7°F-0.2°C 46% 5.9 mph N9.5 kmh N 10.8 mph17.4 kmh 29.98 in1015.2 mb 0.00 in0.0 mm 0.00 in0.0 mm 0.00 in0.0 mm
09:00 AM 52.2°F11.2°C 32.0°F0.0°C 46% 5.3 mph N8.5 kmh N 13.2 mph21.2 kmh 29.95 in1014.2 mb 0.00 in0.0 mm 0.00 in0.0 mm 0.00 in0.0 mm
09:15 AM 52.7°F11.5°C 31.4°F-0.3°C 44% 4.7 mph NNW7.6 kmh NNW 13.2 mph21.2 kmh 29.98 in1015.2 mb 0.00 in0.0 mm 0.00 in0.0 mm 0.00 in0.0 mm
09:30 AM 53.6°F12.0°C 31.0°F-0.6°C 42% 6.4 mph N10.3 kmh N 13.8 mph22.2 kmh 29.98 in1015.2 mb 0.00 in0.0 mm 0.00 in0.0 mm 0.00 in0.0 mm
09:45 AM 54.3°F12.4°C 31.7°F-0.2°C 42% Calm Calm 10.5 mph16.9 kmh 29.98 in1015.2 mb 0.00 in0.0 mm 0.00 in0.0 mm 0.00 in0.0 mm
10:00 AM 55.4°F13.0°C 31.5°F-0.3°C 40% Calm Calm 13.8 mph22.2 kmh 30.01 in1016.3 mb 0.00 in0.0 mm 0.00 in0.0 mm 0.00 in0.0 mm
10:15 AM 56.5°F13.6°C 31.8°F-0.1°C 39% 5.3 mph NNW8.5 kmh NNW 10.5 mph16.9 kmh 30.01 in1016.3 mb 0.00 in0.0 mm 0.00 in0.0 mm 0.00 in0.0 mm
10:30 AM 57.2°F14.0°C 31.1°F-0.5°C 37% 5.3 mph N8.5 kmh N 16.1 mph25.9 kmh 30.01 in1016.3 mb 0.00 in0.0 mm 0.00 in0.0 mm 0.00 in0.0 mm
10:45 AM 57.9°F14.4°C 31.1°F-0.5°C 36% 6.4 mph N10.3 kmh N 10.8 mph17.4 kmh 30.01 in1016.3 mb 0.00 in0.0 mm 0.00 in0.0 mm 0.00 in0.0 mm
11:00 AM 57.9°F14.4°C 31.8°F-0.1°C 37% 2.9 mph NE4.7 kmh NE 11.4 mph18.3 kmh 30.01 in1016.3 mb 0.00 in0.0 mm 0.00 in0.0 mm 0.00 in0.0 mm
11:15 AM 58.5°F14.7°C 31.6°F-0.2°C 36% 4.1 mph N6.6 kmh N 14.4 mph23.2 kmh 30.01 in1016.3 mb 0.00 in0.0 mm 0.00 in0.0 mm 0.00 in0.0 mm
11:30 AM 59.4°F15.2°C 31.7°F-0.2°C 35% 4.7 mph N7.6 kmh N 10.0 mph16.1 kmh 30.01 in1016.3 mb 0.00 in0.0 mm 0.00 in0.0 mm 0.00 in0.0 mm
11:45 AM 59.2°F15.1°C 30.8°F-0.7°C 34% 8.2 mph NNE13.2 kmh NNE 17.9 mph28.8 kmh 30.01 in1016.3 mb 0.00 in0.0 mm 0.00 in0.0 mm 0.00 in0.0 mm
12:00 PM 59.2°F15.1°C 30.8°F-0.7°C 34% 7.6 mph N12.2 kmh N 17.3 mph27.8 kmh 30.01 in1016.3 mb 0.00 in0.0 mm 0.00 in0.0 mm 0.00 in0.0 mm
12:15 PM 59.5°F15.3°C 31.1°F-0.5°C 34% Calm Calm 13.8 mph22.2 kmh 30.01 in1016.3 mb 0.00 in0.0 mm 0.00 in0.0 mm 0.00 in0.0 mm
12:30 PM 60.1°F15.6°C 30.1°F-1.1°C 32% 6.4 mph N10.3 kmh N 12.6 mph20.3 kmh 29.98 in1015.2 mb 0.00 in0.0 mm 0.00 in0.0 mm 0.00 in0.0 mm
12:45 PM 60.4°F15.8°C 31.9°F-0.1°C 34% 5.3 mph NNW8.5 kmh NNW 13.2 mph21.2 kmh 29.98 in1015.2 mb 0.00 in0.0 mm 0.00 in0.0 mm 0.00 in0.0 mm
01:00 PM 61.0°F16.1°C 30.1°F-1.1°C 31% 5.9 mph N9.5 kmh N 16.1 mph25.9 kmh 29.98 in1015.2 mb 0.00 in0.0 mm 0.00 in0.0 mm 0.00 in0.0 mm
01:15 PM 61.3°F16.3°C 29.6°F-1.3°C 30% 4.7 mph N7.6 kmh N 16.1 mph25.9 kmh 29.98 in1015.2 mb 0.00 in0.0 mm 0.00 in0.0 mm 0.00 in0.0 mm
01:30 PM 61.7°F16.5°C 29.1°F-1.6°C 29% 5.3 mph NW8.5 kmh NW 10.8 mph17.4 kmh 29.98 in1015.2 mb 0.00 in0.0 mm 0.00 in0.0 mm 0.00 in0.0 mm
01:45 PM 61.7°F16.5°C 28.2°F-2.1°C 28% 7.6 mph NE12.2 kmh NE 13.8 mph22.2 kmh 29.98 in1015.2 mb 0.00 in0.0 mm 0.00 in0.0 mm 0.00 in0.0 mm
02:00 PM 61.9°F16.6°C 29.2°F-1.6°C 29% 5.3 mph N8.5 kmh N 13.2 mph21.2 kmh 29.98 in1015.2 mb 0.00 in0.0 mm 0.00 in0.0 mm 0.00 in0.0 mm
02:15 PM 61.7°F16.5°C 27.3°F-2.6°C 27% 8.8 mph N14.2 kmh N 11.4 mph18.3 kmh 29.98 in1015.2 mb 0.00 in0.0 mm 0.00 in0.0 mm 0.00 in0.0 mm
02:30 PM 61.3°F16.3°C 27.9°F-2.3°C 28% 7.6 mph N12.2 kmh N 13.8 mph22.2 kmh 29.98 in1015.2 mb 0.00 in0.0 mm 0.00 in0.0 mm 0.00 in0.0 mm
02:45 PM 61.0°F16.1°C 28.5°F-1.9°C 29% 3.5 mph NNE5.6 kmh NNE 10.0 mph16.1 kmh 29.98 in1015.2 mb 0.00 in0.0 mm 0.00 in0.0 mm 0.00 in0.0 mm
03:00 PM 61.2°F16.2°C 28.6°F-1.9°C 29% 5.9 mph N9.5 kmh N 10.8 mph17.4 kmh 29.98 in1015.2 mb 0.00 in0.0 mm 0.00 in0.0 mm 0.00 in0.0 mm
09:15 PM 52.2°F11.2°C 28.5°F-1.9°C 40% 11.4 mph N18.3 kmh N 19.6 mph31.5 kmh 30.04 in1017.3 mb 0.00 in0.0 mm 0.00 in0.0 mm 0.00 in0.0 mm
09:30 PM 52.0°F11.1°C 28.4°F-2.0°C 40% 9.4 mph NNW15.1 kmh NNW 14.4 mph23.2 kmh 30.04 in1017.3 mb 0.00 in0.0 mm 0.00 in0.0 mm 0.00 in0.0 mm
09:45 PM 51.6°F10.9°C 29.3°F-1.5°C 42% 8.2 mph NNW13.2 kmh NNW 14.4 mph23.2 kmh 30.04 in1017.3 mb 0.00 in0.0 mm 0.00 in0.0 mm 0.00 in0.0 mm
10:00 PM 51.4°F10.8°C 29.7°F-1.3°C 43% 5.9 mph NNW9.5 kmh NNW 16.7 mph26.9 kmh 30.04 in1017.3 mb 0.00 in0.0 mm 0.00 in0.0 mm 0.00 in0.0 mm
10:15 PM 50.9°F10.5°C 29.7°F-1.3°C 44% 4.7 mph NW7.6 kmh NW 13.2 mph21.2 kmh 30.04 in1017.3 mb 0.00 in0.0 mm 0.00 in0.0 mm 0.00 in0.0 mm
10:30 PM 50.7°F10.4°C 29.6°F-1.3°C 44% 5.3 mph NNW8.5 kmh NNW 13.2 mph21.2 kmh 30.04 in1017.3 mb 0.00 in0.0 mm 0.00 in0.0 mm 0.00 in0.0 mm
10:45 PM 50.2°F10.1°C 30.2°F-1.0°C 46% 2.9 mph NW4.7 kmh NW 7.6 mph12.2 kmh 30.04 in1017.3 mb 0.00 in0.0 mm 0.00 in0.0 mm 0.00 in0.0 mm
11:00 PM 49.8°F9.9°C 30.4°F-0.9°C 47% Calm Calm 6.4 mph10.3 kmh 30.07 in1018.3 mb 0.00 in0.0 mm 0.00 in0.0 mm 0.00 in0.0 mm
11:15 PM 49.6°F9.8°C 30.2°F-1.0°C 47% 5.9 mph W9.5 kmh W 8.2 mph13.2 kmh 30.07 in1018.3 mb 0.00 in0.0 mm 0.00 in0.0 mm 0.00 in0.0 mm
11:30 PM 49.6°F9.8°C 30.2°F-1.0°C 47% 3.5 mph WNW5.6 kmh WNW 7.6 mph12.2 kmh 30.07 in1018.3 mb 0.00 in0.0 mm 0.00 in0.0 mm 0.00 in0.0 mm
11:45 PM 49.5°F9.7°C 30.6°F-0.8°C 48% 4.7 mph NW7.6 kmh NW 8.2 mph13.2 kmh 30.07 in1018.3 mb 0.00 in0.0 mm 0.00 in0.0 mm 0.00 in0.0 mm